sensor_id;sensor_type;location;lat;lon;timestamp;P1;durP1;ratioP1;P2;durP2;ratioP2
2748;SDS011;1382;52.142;11.618;2024-03-23T00:57:41;11.20;;;4.83;;
2748;SDS011;1382;52.142;11.618;2024-03-23T01:00:27;8.13;;;4.20;;
2748;SDS011;1382;52.142;11.618;2024-03-23T01:03:34;6.13;;;4.73;;
2748;SDS011;1382;52.142;11.618;2024-03-23T01:06:35;9.70;;;4.77;;
2748;SDS011;1382;52.142;11.618;2024-03-23T01:09:54;10.17;;;5.70;;
2748;SDS011;1382;52.142;11.618;2024-03-23T01:13:09;8.37;;;5.60;;
2748;SDS011;1382;52.142;11.618;2024-03-23T01:16:09;9.90;;;5.80;;
2748;SDS011;1382;52.142;11.618;2024-03-23T01:19:18;11.60;;;6.90;;
2748;SDS011;1382;52.142;11.618;2024-03-23T01:25:09;14.17;;;7.77;;
2748;SDS011;1382;52.142;11.618;2024-03-23T01:37:34;15.13;;;8.30;;
2748;SDS011;1382;52.142;11.618;2024-03-23T01:43:23;11.40;;;6.27;;
2748;SDS011;1382;52.142;11.618;2024-03-23T01:49:43;10.83;;;6.73;;
2748;SDS011;1382;52.142;11.618;2024-03-23T01:52:54;11.60;;;6.13;;
2748;SDS011;1382;52.142;11.618;2024-03-23T01:55:44;7.53;;;5.60;;
2748;SDS011;1382;52.142;11.618;2024-03-23T01:58:23;9.70;;;5.00;;
2748;SDS011;1382;52.142;11.618;2024-03-23T02:01:11;11.10;;;5.67;;
2748;SDS011;1382;52.142;11.618;2024-03-23T02:04:04;8.10;;;5.40;;
2748;SDS011;1382;52.142;11.618;2024-03-23T02:07:51;11.10;;;4.70;;
2748;SDS011;1382;52.142;11.618;2024-03-23T02:13:45;5.67;;;3.60;;
2748;SDS011;1382;52.142;11.618;2024-03-23T02:28:58;9.50;;;4.87;;
2748;SDS011;1382;52.142;11.618;2024-03-23T02:35:39;13.80;;;3.13;;
2748;SDS011;1382;52.142;11.618;2024-03-23T02:38:46;7.87;;;3.10;;
2748;SDS011;1382;52.142;11.618;2024-03-23T02:41:46;4.40;;;3.00;;
2748;SDS011;1382;52.142;11.618;2024-03-23T02:44:38;5.00;;;2.60;;
2748;SDS011;1382;52.142;11.618;2024-03-23T02:47:36;6.43;;;3.10;;
2748;SDS011;1382;52.142;11.618;2024-03-23T02:50:22;9.00;;;3.53;;
2748;SDS011;1382;52.142;11.618;2024-03-23T03:19:35;5.60;;;2.23;;
2748;SDS011;1382;52.142;11.618;2024-03-23T03:22:30;8.47;;;2.63;;
2748;SDS011;1382;52.142;11.618;2024-03-23T03:25:35;8.53;;;2.63;;
2748;SDS011;1382;52.142;11.618;2024-03-23T03:38:42;4.93;;;2.00;;
2748;SDS011;1382;52.142;11.618;2024-03-23T03:45:25;2.00;;;1.43;;
2748;SDS011;1382;52.142;11.618;2024-03-23T03:48:07;6.30;;;1.80;;
2748;SDS011;1382;52.142;11.618;2024-03-23T03:50:46;9.23;;;3.13;;
2748;SDS011;1382;52.142;11.618;2024-03-23T04:19:33;11.17;;;2.63;;
2748;SDS011;1382;52.142;11.618;2024-03-23T04:28:50;5.73;;;2.40;;
2748;SDS011;1382;52.142;11.618;2024-03-23T04:34:47;10.20;;;2.60;;
2748;SDS011;1382;52.142;11.618;2024-03-23T04:37:39;4.70;;;2.13;;
2748;SDS011;1382;52.142;11.618;2024-03-23T04:43:56;5.73;;;2.13;;
2748;SDS011;1382;52.142;11.618;2024-03-23T04:46:59;8.53;;;2.90;;
2748;SDS011;1382;52.142;11.618;2024-03-23T05:04:06;4.20;;;2.00;;
2748;SDS011;1382;52.142;11.618;2024-03-23T05:06:59;5.07;;;2.17;;
2748;SDS011;1382;52.142;11.618;2024-03-23T05:10:29;7.90;;;1.93;;
2748;SDS011;1382;52.142;11.618;2024-03-23T05:16:56;7.47;;;2.07;;
2748;SDS011;1382;52.142;11.618;2024-03-23T05:19:37;5.20;;;2.43;;
2748;SDS011;1382;52.142;11.618;2024-03-23T05:22:21;7.00;;;1.90;;
2748;SDS011;1382;52.142;11.618;2024-03-23T05:25:35;5.07;;;1.93;;
2748;SDS011;1382;52.142;11.618;2024-03-23T05:28:42;9.80;;;2.60;;
2748;SDS011;1382;52.142;11.618;2024-03-23T05:31:49;4.03;;;1.67;;
2748;SDS011;1382;52.142;11.618;2024-03-23T05:35:11;7.90;;;2.07;;
2748;SDS011;1382;52.142;11.618;2024-03-23T05:39:04;10.37;;;1.87;;
2748;SDS011;1382;52.142;11.618;2024-03-23T05:42:24;14.00;;;2.80;;
2748;SDS011;1382;52.142;11.618;2024-03-23T05:45:22;9.60;;;2.30;;
2748;SDS011;1382;52.142;11.618;2024-03-23T05:51:45;12.03;;;2.90;;
2748;SDS011;1382;52.142;11.618;2024-03-23T05:55:06;5.97;;;2.57;;
2748;SDS011;1382;52.142;11.618;2024-03-23T05:57:57;7.23;;;2.53;;
2748;SDS011;1382;52.142;11.618;2024-03-23T06:00:28;11.57;;;2.70;;
2748;SDS011;1382;52.142;11.618;2024-03-23T06:04:14;6.40;;;2.60;;
2748;SDS011;1382;52.142;11.618;2024-03-23T06:06:06;8.40;;;2.30;;
2748;SDS011;1382;52.142;11.618;2024-03-23T06:08:32;10.63;;;3.00;;
2748;SDS011;1382;52.142;11.618;2024-03-23T06:10:58;5.50;;;2.37;;
2748;SDS011;1382;52.142;11.618;2024-03-23T06:13:23;7.50;;;2.40;;
2748;SDS011;1382;52.142;11.618;2024-03-23T06:15:49;11.57;;;2.47;;
2748;SDS011;1382;52.142;11.618;2024-03-23T06:18:15;6.80;;;2.43;;
2748;SDS011;1382;52.142;11.618;2024-03-23T06:20:43;7.13;;;2.30;;
2748;SDS011;1382;52.142;11.618;2024-03-23T06:23:08;9.80;;;2.80;;
2748;SDS011;1382;52.142;11.618;2024-03-23T06:25:34;10.77;;;2.60;;
2748;SDS011;1382;52.142;11.618;2024-03-23T06:28:00;6.73;;;2.00;;
2748;SDS011;1382;52.142;11.618;2024-03-23T06:30:26;9.30;;;2.47;;
2748;SDS011;1382;52.142;11.618;2024-03-23T06:32:52;7.00;;;2.53;;
2748;SDS011;1382;52.142;11.618;2024-03-23T06:35:18;12.00;;;2.50;;
2748;SDS011;1382;52.142;11.618;2024-03-23T06:37:45;8.10;;;2.23;;
2748;SDS011;1382;52.142;11.618;2024-03-23T06:40:11;7.83;;;2.40;;
2748;SDS011;1382;52.142;11.618;2024-03-23T06:42:36;16.97;;;3.27;;
2748;SDS011;1382;52.142;11.618;2024-03-23T06:45:03;9.23;;;2.37;;
2748;SDS011;1382;52.142;11.618;2024-03-23T06:47:29;17.90;;;3.70;;
2748;SDS011;1382;52.142;11.618;2024-03-23T06:49:55;10.23;;;3.10;;
2748;SDS011;1382;52.142;11.618;2024-03-23T06:52:21;8.63;;;2.60;;
2748;SDS011;1382;52.142;11.618;2024-03-23T06:54:48;8.77;;;2.57;;
2748;SDS011;1382;52.142;11.618;2024-03-23T06:57:14;8.03;;;3.20;;
2748;SDS011;1382;52.142;11.618;2024-03-23T06:59:39;6.80;;;3.10;;
2748;SDS011;1382;52.142;11.618;2024-03-23T07:02:05;4.57;;;2.10;;
2748;SDS011;1382;52.142;11.618;2024-03-23T07:04:31;5.17;;;2.33;;
2748;SDS011;1382;52.142;11.618;2024-03-23T07:06:57;7.03;;;2.83;;
2748;SDS011;1382;52.142;11.618;2024-03-23T07:09:23;10.87;;;2.43;;
2748;SDS011;1382;52.142;11.618;2024-03-23T07:11:50;8.73;;;1.87;;
2748;SDS011;1382;52.142;11.618;2024-03-23T07:14:16;8.00;;;2.70;;
2748;SDS011;1382;52.142;11.618;2024-03-23T07:16:42;9.40;;;2.30;;
2748;SDS011;1382;52.142;11.618;2024-03-23T07:19:07;10.20;;;2.90;;
2748;SDS011;1382;52.142;11.618;2024-03-23T07:21:33;6.53;;;1.93;;
2748;SDS011;1382;52.142;11.618;2024-03-23T07:23:59;11.57;;;2.30;;
2748;SDS011;1382;52.142;11.618;2024-03-23T07:26:25;8.97;;;2.47;;
2748;SDS011;1382;52.142;11.618;2024-03-23T07:28:52;12.10;;;3.27;;
2748;SDS011;1382;52.142;11.618;2024-03-23T07:31:18;8.93;;;2.53;;
2748;SDS011;1382;52.142;11.618;2024-03-23T07:33:45;9.77;;;2.67;;
2748;SDS011;1382;52.142;11.618;2024-03-23T07:36:12;10.10;;;3.47;;
2748;SDS011;1382;52.142;11.618;2024-03-23T07:38:40;8.23;;;3.03;;
2748;SDS011;1382;52.142;11.618;2024-03-23T07:41:06;9.30;;;3.07;;
2748;SDS011;1382;52.142;11.618;2024-03-23T07:43:33;8.80;;;3.03;;
2748;SDS011;1382;52.142;11.618;2024-03-23T07:46:00;12.60;;;2.30;;
2748;SDS011;1382;52.142;11.618;2024-03-23T07:48:27;5.80;;;2.30;;
2748;SDS011;1382;52.142;11.618;2024-03-23T07:51:00;15.30;;;2.73;;
2748;SDS011;1382;52.142;11.618;2024-03-23T07:53:26;8.70;;;2.33;;
2748;SDS011;1382;52.142;11.618;2024-03-23T07:55:54;11.20;;;3.17;;
2748;SDS011;1382;52.142;11.618;2024-03-23T07:58:20;10.03;;;2.10;;
2748;SDS011;1382;52.142;11.618;2024-03-23T08:00:46;4.80;;;1.90;;
2748;SDS011;1382;52.142;11.618;2024-03-23T08:03:13;10.60;;;3.23;;
2748;SDS011;1382;52.142;11.618;2024-03-23T08:05:39;9.03;;;2.30;;
2748;SDS011;1382;52.142;11.618;2024-03-23T08:08:06;6.10;;;2.43;;
2748;SDS011;1382;52.142;11.618;2024-03-23T08:10:31;5.67;;;2.20;;
2748;SDS011;1382;52.142;11.618;2024-03-23T08:12:57;7.83;;;1.87;;
2748;SDS011;1382;52.142;11.618;2024-03-23T08:15:23;6.47;;;2.30;;
2748;SDS011;1382;52.142;11.618;2024-03-23T08:17:49;13.27;;;2.50;;
2748;SDS011;1382;52.142;11.618;2024-03-23T08:20:17;7.10;;;2.40;;
2748;SDS011;1382;52.142;11.618;2024-03-23T08:22:42;9.90;;;2.93;;
2748;SDS011;1382;52.142;11.618;2024-03-23T08:25:08;8.80;;;3.13;;
2748;SDS011;1382;52.142;11.618;2024-03-23T08:27:34;11.33;;;3.70;;
2748;SDS011;1382;52.142;11.618;2024-03-23T08:30:00;7.20;;;2.67;;
2748;SDS011;1382;52.142;11.618;2024-03-23T08:32:26;11.37;;;2.77;;
2748;SDS011;1382;52.142;11.618;2024-03-23T08:34:52;7.07;;;2.20;;
2748;SDS011;1382;52.142;11.618;2024-03-23T08:37:19;13.90;;;3.40;;
2748;SDS011;1382;52.142;11.618;2024-03-23T08:39:45;8.80;;;3.53;;
2748;SDS011;1382;52.142;11.618;2024-03-23T08:42:11;16.07;;;2.90;;
2748;SDS011;1382;52.142;11.618;2024-03-23T08:44:37;9.80;;;2.93;;
2748;SDS011;1382;52.142;11.618;2024-03-23T08:47:02;4.40;;;2.80;;
2748;SDS011;1382;52.142;11.618;2024-03-23T08:49:28;9.50;;;2.10;;
2748;SDS011;1382;52.142;11.618;2024-03-23T08:51:54;7.63;;;2.57;;
2748;SDS011;1382;52.142;11.618;2024-03-23T08:54:22;7.83;;;2.00;;
2748;SDS011;1382;52.142;11.618;2024-03-23T08:56:47;7.87;;;2.10;;
2748;SDS011;1382;52.142;11.618;2024-03-23T08:59:13;5.83;;;2.57;;
2748;SDS011;1382;52.142;11.618;2024-03-23T09:01:39;3.60;;;1.63;;
2748;SDS011;1382;52.142;11.618;2024-03-23T09:04:05;9.90;;;2.57;;
2748;SDS011;1382;52.142;11.618;2024-03-23T09:06:31;9.00;;;1.67;;
2748;SDS011;1382;52.142;11.618;2024-03-23T09:08:56;4.07;;;1.70;;
2748;SDS011;1382;52.142;11.618;2024-03-23T09:11:24;5.40;;;2.00;;
2748;SDS011;1382;52.142;11.618;2024-03-23T09:13:50;7.27;;;1.50;;
2748;SDS011;1382;52.142;11.618;2024-03-23T09:16:15;5.33;;;2.90;;
2748;SDS011;1382;52.142;11.618;2024-03-23T09:18:41;8.43;;;1.97;;
2748;SDS011;1382;52.142;11.618;2024-03-23T09:21:10;2.70;;;2.00;;
2748;SDS011;1382;52.142;11.618;2024-03-23T09:23:37;8.37;;;1.93;;
2748;SDS011;1382;52.142;11.618;2024-03-23T09:26:03;2.03;;;1.53;;
2748;SDS011;1382;52.142;11.618;2024-03-23T09:28:30;8.00;;;2.20;;
2748;SDS011;1382;52.142;11.618;2024-03-23T09:31:01;3.50;;;3.03;;
2748;SDS011;1382;52.142;11.618;2024-03-23T09:33:27;7.00;;;3.00;;
2748;SDS011;1382;52.142;11.618;2024-03-23T09:35:53;6.90;;;2.90;;
2748;SDS011;1382;52.142;11.618;2024-03-23T09:38:19;9.30;;;2.60;;
2748;SDS011;1382;52.142;11.618;2024-03-23T09:40:45;13.97;;;3.27;;
2748;SDS011;1382;52.142;11.618;2024-03-23T09:43:13;8.30;;;3.17;;
2748;SDS011;1382;52.142;11.618;2024-03-23T09:45:40;9.33;;;3.10;;
2748;SDS011;1382;52.142;11.618;2024-03-23T09:48:08;8.50;;;2.90;;
2748;SDS011;1382;52.142;11.618;2024-03-23T09:50:35;10.30;;;2.70;;
2748;SDS011;1382;52.142;11.618;2024-03-23T09:53:02;10.53;;;3.03;;
2748;SDS011;1382;52.142;11.618;2024-03-23T09:55:27;10.00;;;2.90;;
2748;SDS011;1382;52.142;11.618;2024-03-23T09:57:53;5.67;;;2.30;;
2748;SDS011;1382;52.142;11.618;2024-03-23T10:00:19;8.33;;;3.63;;
2748;SDS011;1382;52.142;11.618;2024-03-23T10:02:46;13.23;;;3.57;;
2748;SDS011;1382;52.142;11.618;2024-03-23T10:05:21;3.83;;;2.40;;
2748;SDS011;1382;52.142;11.618;2024-03-23T10:07:48;5.40;;;2.23;;
2748;SDS011;1382;52.142;11.618;2024-03-23T10:10:15;8.03;;;2.53;;
2748;SDS011;1382;52.142;11.618;2024-03-23T10:12:43;6.63;;;2.40;;
2748;SDS011;1382;52.142;11.618;2024-03-23T10:15:12;13.20;;;3.33;;
2748;SDS011;1382;52.142;11.618;2024-03-23T10:17:43;10.53;;;2.30;;
2748;SDS011;1382;52.142;11.618;2024-03-23T10:20:10;8.00;;;2.23;;
2748;SDS011;1382;52.142;11.618;2024-03-23T10:22:37;11.10;;;2.80;;
2748;SDS011;1382;52.142;11.618;2024-03-23T10:25:06;6.30;;;2.07;;
2748;SDS011;1382;52.142;11.618;2024-03-23T10:27:33;7.17;;;2.20;;
2748;SDS011;1382;52.142;11.618;2024-03-23T10:30:07;8.23;;;3.00;;
2748;SDS011;1382;52.142;11.618;2024-03-23T10:32:33;5.57;;;3.00;;
2748;SDS011;1382;52.142;11.618;2024-03-23T10:35:14;8.97;;;2.00;;
2748;SDS011;1382;52.142;11.618;2024-03-23T10:37:41;7.57;;;2.40;;
2748;SDS011;1382;52.142;11.618;2024-03-23T10:40:08;6.20;;;2.17;;
2748;SDS011;1382;52.142;11.618;2024-03-23T10:42:36;7.70;;;2.27;;
2748;SDS011;1382;52.142;11.618;2024-03-23T10:45:03;9.97;;;3.00;;
2748;SDS011;1382;52.142;11.618;2024-03-23T10:47:31;6.60;;;2.67;;
2748;SDS011;1382;52.142;11.618;2024-03-23T10:49:56;8.50;;;3.60;;
2748;SDS011;1382;52.142;11.618;2024-03-23T10:52:24;6.60;;;3.03;;
2748;SDS011;1382;52.142;11.618;2024-03-23T10:54:50;10.40;;;4.00;;
2748;SDS011;1382;52.142;11.618;2024-03-23T10:57:17;11.47;;;4.20;;
2748;SDS011;1382;52.142;11.618;2024-03-23T10:59:46;13.03;;;4.17;;
2748;SDS011;1382;52.142;11.618;2024-03-23T11:02:18;7.07;;;3.83;;
2748;SDS011;1382;52.142;11.618;2024-03-23T11:04:44;5.47;;;2.53;;
2748;SDS011;1382;52.142;11.618;2024-03-23T11:09:56;6.13;;;3.50;;
2748;SDS011;1382;52.142;11.618;2024-03-23T11:12:31;5.27;;;3.00;;
2748;SDS011;1382;52.142;11.618;2024-03-23T11:14:58;4.60;;;2.80;;
2748;SDS011;1382;52.142;11.618;2024-03-23T11:17:26;7.03;;;3.00;;
2748;SDS011;1382;52.142;11.618;2024-03-23T11:19:53;12.23;;;3.00;;
2748;SDS011;1382;52.142;11.618;2024-03-23T11:25:12;11.80;;;3.50;;
2748;SDS011;1382;52.142;11.618;2024-03-23T11:30:12;7.30;;;2.63;;
2748;SDS011;1382;52.142;11.618;2024-03-23T11:32:39;6.67;;;3.63;;
2748;SDS011;1382;52.142;11.618;2024-03-23T11:35:05;3.77;;;1.63;;
2748;SDS011;1382;52.142;11.618;2024-03-23T11:37:32;6.87;;;2.17;;
2748;SDS011;1382;52.142;11.618;2024-03-23T11:39:59;5.90;;;2.00;;
2748;SDS011;1382;52.142;11.618;2024-03-23T11:42:25;6.60;;;2.37;;
2748;SDS011;1382;52.142;11.618;2024-03-23T11:44:50;9.93;;;3.70;;
2748;SDS011;1382;52.142;11.618;2024-03-23T11:47:16;10.67;;;3.87;;
2748;SDS011;1382;52.142;11.618;2024-03-23T11:49:42;6.87;;;3.50;;
2748;SDS011;1382;52.142;11.618;2024-03-23T11:52:08;10.50;;;3.77;;
2748;SDS011;1382;52.142;11.618;2024-03-23T11:54:34;10.13;;;3.40;;
2748;SDS011;1382;52.142;11.618;2024-03-23T11:57:02;11.40;;;3.47;;
2748;SDS011;1382;52.142;11.618;2024-03-23T11:59:30;10.50;;;4.57;;
2748;SDS011;1382;52.142;11.618;2024-03-23T12:01:56;14.60;;;5.03;;
2748;SDS011;1382;52.142;11.618;2024-03-23T12:04:24;15.73;;;5.20;;
2748;SDS011;1382;52.142;11.618;2024-03-23T12:06:52;6.73;;;2.10;;
2748;SDS011;1382;52.142;11.618;2024-03-23T12:09:34;4.40;;;2.30;;
2748;SDS011;1382;52.142;11.618;2024-03-23T12:12:06;7.27;;;3.63;;
2748;SDS011;1382;52.142;11.618;2024-03-23T12:14:33;6.13;;;2.33;;
2748;SDS011;1382;52.142;11.618;2024-03-23T12:17:06;5.00;;;3.20;;
2748;SDS011;1382;52.142;11.618;2024-03-23T12:19:33;7.70;;;3.40;;
2748;SDS011;1382;52.142;11.618;2024-03-23T12:21:59;6.00;;;3.20;;
2748;SDS011;1382;52.142;11.618;2024-03-23T12:24:25;7.23;;;3.67;;
2748;SDS011;1382;52.142;11.618;2024-03-23T12:26:51;8.37;;;4.53;;
2748;SDS011;1382;52.142;11.618;2024-03-23T12:29:18;6.83;;;4.00;;
2748;SDS011;1382;52.142;11.618;2024-03-23T12:31:44;17.70;;;6.90;;
2748;SDS011;1382;52.142;11.618;2024-03-23T12:34:09;15.77;;;8.80;;
2748;SDS011;1382;52.142;11.618;2024-03-23T12:36:35;21.33;;;9.60;;
2748;SDS011;1382;52.142;11.618;2024-03-23T12:39:01;9.30;;;4.17;;
2748;SDS011;1382;52.142;11.618;2024-03-23T12:41:27;7.97;;;4.50;;
2748;SDS011;1382;52.142;11.618;2024-03-23T12:43:53;7.67;;;4.43;;
2748;SDS011;1382;52.142;11.618;2024-03-23T12:46:20;12.63;;;4.90;;
2748;SDS011;1382;52.142;11.618;2024-03-23T12:48:46;3.63;;;2.70;;
2748;SDS011;1382;52.142;11.618;2024-03-23T12:51:12;7.57;;;3.80;;
2748;SDS011;1382;52.142;11.618;2024-03-23T12:53:40;7.33;;;4.70;;
2748;SDS011;1382;52.142;11.618;2024-03-23T12:56:06;11.03;;;4.07;;
2748;SDS011;1382;52.142;11.618;2024-03-23T12:58:32;9.23;;;4.30;;
2748;SDS011;1382;52.142;11.618;2024-03-23T13:00:58;10.27;;;4.40;;
2748;SDS011;1382;52.142;11.618;2024-03-23T13:03:25;10.57;;;3.20;;
2748;SDS011;1382;52.142;11.618;2024-03-23T13:05:51;9.03;;;4.30;;
2748;SDS011;1382;52.142;11.618;2024-03-23T13:08:17;11.27;;;7.80;;
2748;SDS011;1382;52.142;11.618;2024-03-23T13:10:43;16.77;;;6.83;;
2748;SDS011;1382;52.142;11.618;2024-03-23T13:13:09;12.10;;;6.40;;
2748;SDS011;1382;52.142;11.618;2024-03-23T13:15:34;8.50;;;4.60;;
2748;SDS011;1382;52.142;11.618;2024-03-23T13:18:00;7.17;;;3.10;;
2748;SDS011;1382;52.142;11.618;2024-03-23T13:20:28;15.73;;;5.30;;
2748;SDS011;1382;52.142;11.618;2024-03-23T13:22:54;11.33;;;3.70;;
2748;SDS011;1382;52.142;11.618;2024-03-23T13:25:19;7.20;;;3.27;;
2748;SDS011;1382;52.142;11.618;2024-03-23T13:27:45;5.80;;;1.80;;
2748;SDS011;1382;52.142;11.618;2024-03-23T13:30:12;2.70;;;1.50;;
2748;SDS011;1382;52.142;11.618;2024-03-23T13:32:38;3.33;;;1.50;;
2748;SDS011;1382;52.142;11.618;2024-03-23T13:35:04;2.20;;;1.67;;
2748;SDS011;1382;52.142;11.618;2024-03-23T13:37:31;4.40;;;1.93;;
2748;SDS011;1382;52.142;11.618;2024-03-23T13:39:57;3.67;;;1.60;;
2748;SDS011;1382;52.142;11.618;2024-03-23T13:42:23;3.70;;;1.67;;
2748;SDS011;1382;52.142;11.618;2024-03-23T13:44:49;4.13;;;1.80;;
2748;SDS011;1382;52.142;11.618;2024-03-23T13:47:14;2.60;;;1.33;;
2748;SDS011;1382;52.142;11.618;2024-03-23T13:49:40;2.50;;;1.50;;
2748;SDS011;1382;52.142;11.618;2024-03-23T13:52:06;6.80;;;2.10;;
2748;SDS011;1382;52.142;11.618;2024-03-23T13:54:33;3.30;;;1.40;;
2748;SDS011;1382;52.142;11.618;2024-03-23T13:56:59;2.47;;;1.70;;
2748;SDS011;1382;52.142;11.618;2024-03-23T13:59:25;4.10;;;1.87;;
2748;SDS011;1382;52.142;11.618;2024-03-23T14:01:51;3.97;;;1.43;;
2748;SDS011;1382;52.142;11.618;2024-03-23T14:04:17;2.77;;;1.73;;
2748;SDS011;1382;52.142;11.618;2024-03-23T14:06:43;3.13;;;1.17;;
2748;SDS011;1382;52.142;11.618;2024-03-23T14:09:09;3.30;;;1.10;;
2748;SDS011;1382;52.142;11.618;2024-03-23T14:11:36;1.53;;;0.90;;
2748;SDS011;1382;52.142;11.618;2024-03-23T14:14:03;2.50;;;1.30;;
2748;SDS011;1382;52.142;11.618;2024-03-23T14:16:29;2.23;;;1.40;;
2748;SDS011;1382;52.142;11.618;2024-03-23T14:18:55;2.40;;;1.07;;
2748;SDS011;1382;52.142;11.618;2024-03-23T14:21:21;5.77;;;1.20;;
2748;SDS011;1382;52.142;11.618;2024-03-23T14:23:55;2.93;;;1.27;;
2748;SDS011;1382;52.142;11.618;2024-03-23T14:26:21;2.70;;;1.50;;
2748;SDS011;1382;52.142;11.618;2024-03-23T14:28:48;3.70;;;1.60;;
2748;SDS011;1382;52.142;11.618;2024-03-23T14:31:14;1.23;;;1.00;;
2748;SDS011;1382;52.142;11.618;2024-03-23T14:33:40;2.90;;;1.07;;
2748;SDS011;1382;52.142;11.618;2024-03-23T14:36:10;3.30;;;1.80;;
2748;SDS011;1382;52.142;11.618;2024-03-23T14:38:36;5.33;;;1.60;;
2748;SDS011;1382;52.142;11.618;2024-03-23T14:41:02;5.83;;;2.20;;
2748;SDS011;1382;52.142;11.618;2024-03-23T14:43:28;4.43;;;1.87;;
2748;SDS011;1382;52.142;11.618;2024-03-23T14:46:10;3.13;;;1.80;;
2748;SDS011;1382;52.142;11.618;2024-03-23T14:48:37;1.50;;;1.33;;
2748;SDS011;1382;52.142;11.618;2024-03-23T14:51:03;3.80;;;1.97;;
2748;SDS011;1382;52.142;11.618;2024-03-23T14:53:29;3.37;;;2.03;;
2748;SDS011;1382;52.142;11.618;2024-03-23T14:55:55;5.47;;;1.43;;
2748;SDS011;1382;52.142;11.618;2024-03-23T14:58:21;2.53;;;1.60;;
2748;SDS011;1382;52.142;11.618;2024-03-23T15:00:47;4.93;;;1.93;;
2748;SDS011;1382;52.142;11.618;2024-03-23T15:03:14;2.50;;;1.50;;
2748;SDS011;1382;52.142;11.618;2024-03-23T15:05:41;5.43;;;2.00;;
2748;SDS011;1382;52.142;11.618;2024-03-23T15:08:07;1.23;;;1.00;;
2748;SDS011;1382;52.142;11.618;2024-03-23T15:10:33;2.87;;;1.67;;
2748;SDS011;1382;52.142;11.618;2024-03-23T15:12:59;2.70;;;1.70;;
2748;SDS011;1382;52.142;11.618;2024-03-23T15:15:25;1.50;;;1.40;;
2748;SDS011;1382;52.142;11.618;2024-03-23T15:17:50;1.50;;;1.27;;
2748;SDS011;1382;52.142;11.618;2024-03-23T15:20:18;3.23;;;2.97;;
2748;SDS011;1382;52.142;11.618;2024-03-23T15:22:43;3.63;;;2.63;;
2748;SDS011;1382;52.142;11.618;2024-03-23T15:25:12;4.30;;;2.90;;
2748;SDS011;1382;52.142;11.618;2024-03-23T15:27:38;5.83;;;3.20;;
2748;SDS011;1382;52.142;11.618;2024-03-23T15:30:05;3.23;;;2.67;;
2748;SDS011;1382;52.142;11.618;2024-03-23T15:32:32;7.00;;;4.93;;
2748;SDS011;1382;52.142;11.618;2024-03-23T15:34:58;3.53;;;2.60;;
2748;SDS011;1382;52.142;11.618;2024-03-23T15:37:25;7.13;;;2.57;;
2748;SDS011;1382;52.142;11.618;2024-03-23T15:40:03;3.83;;;2.40;;
2748;SDS011;1382;52.142;11.618;2024-03-23T15:42:29;5.43;;;3.00;;
2748;SDS011;1382;52.142;11.618;2024-03-23T15:44:55;3.60;;;2.60;;
2748;SDS011;1382;52.142;11.618;2024-03-23T15:47:23;2.37;;;1.90;;
2748;SDS011;1382;52.142;11.618;2024-03-23T15:49:54;3.93;;;3.23;;
2748;SDS011;1382;52.142;11.618;2024-03-23T15:52:20;5.23;;;2.90;;
2748;SDS011;1382;52.142;11.618;2024-03-23T15:54:47;3.50;;;2.97;;
2748;SDS011;1382;52.142;11.618;2024-03-23T15:57:13;2.20;;;2.00;;
2748;SDS011;1382;52.142;11.618;2024-03-23T15:59:39;3.07;;;2.33;;
2748;SDS011;1382;52.142;11.618;2024-03-23T16:02:06;2.60;;;2.07;;
2748;SDS011;1382;52.142;11.618;2024-03-23T16:04:32;2.07;;;1.90;;
2748;SDS011;1382;52.142;11.618;2024-03-23T16:06:58;3.67;;;2.03;;
2748;SDS011;1382;52.142;11.618;2024-03-23T16:09:23;2.17;;;1.97;;
2748;SDS011;1382;52.142;11.618;2024-03-23T16:11:51;2.27;;;1.87;;
2748;SDS011;1382;52.142;11.618;2024-03-23T16:14:16;3.50;;;2.07;;
2748;SDS011;1382;52.142;11.618;2024-03-23T16:16:42;3.40;;;1.83;;
2748;SDS011;1382;52.142;11.618;2024-03-23T16:19:08;1.47;;;1.20;;
2748;SDS011;1382;52.142;11.618;2024-03-23T16:21:34;5.53;;;1.73;;
2748;SDS011;1382;52.142;11.618;2024-03-23T16:24:00;2.10;;;1.50;;
2748;SDS011;1382;52.142;11.618;2024-03-23T16:26:25;2.13;;;1.20;;
2748;SDS011;1382;52.142;11.618;2024-03-23T16:28:53;5.93;;;1.27;;
2748;SDS011;1382;52.142;11.618;2024-03-23T16:31:18;2.90;;;1.33;;
2748;SDS011;1382;52.142;11.618;2024-03-23T16:33:44;2.20;;;1.50;;
2748;SDS011;1382;52.142;11.618;2024-03-23T16:36:10;3.03;;;1.47;;
2748;SDS011;1382;52.142;11.618;2024-03-23T16:38:37;3.03;;;1.87;;
2748;SDS011;1382;52.142;11.618;2024-03-23T16:41:04;4.53;;;1.90;;
2748;SDS011;1382;52.142;11.618;2024-03-23T16:43:31;6.03;;;1.67;;
2748;SDS011;1382;52.142;11.618;2024-03-23T16:46:03;3.00;;;1.60;;
2748;SDS011;1382;52.142;11.618;2024-03-23T16:48:31;6.10;;;3.50;;
2748;SDS011;1382;52.142;11.618;2024-03-23T16:50:58;3.07;;;2.20;;
2748;SDS011;1382;52.142;11.618;2024-03-23T16:53:25;3.70;;;1.50;;
2748;SDS011;1382;52.142;11.618;2024-03-23T16:55:54;3.10;;;1.23;;
2748;SDS011;1382;52.142;11.618;2024-03-23T16:58:20;1.90;;;1.80;;
2748;SDS011;1382;52.142;11.618;2024-03-23T17:00:46;2.10;;;1.33;;
2748;SDS011;1382;52.142;11.618;2024-03-23T17:03:13;4.73;;;2.00;;
2748;SDS011;1382;52.142;11.618;2024-03-23T17:05:39;7.53;;;4.10;;
2748;SDS011;1382;52.142;11.618;2024-03-23T17:08:06;3.70;;;2.43;;
2748;SDS011;1382;52.142;11.618;2024-03-23T17:10:32;3.30;;;1.40;;
2748;SDS011;1382;52.142;11.618;2024-03-23T17:12:58;9.50;;;6.43;;
2748;SDS011;1382;52.142;11.618;2024-03-23T17:15:23;14.30;;;8.60;;
2748;SDS011;1382;52.142;11.618;2024-03-23T17:17:49;6.17;;;3.90;;
2748;SDS011;1382;52.142;11.618;2024-03-23T17:20:17;6.47;;;3.70;;
2748;SDS011;1382;52.142;11.618;2024-03-23T17:22:42;7.13;;;3.00;;
2748;SDS011;1382;52.142;11.618;2024-03-23T17:25:08;3.77;;;1.40;;
2748;SDS011;1382;52.142;11.618;2024-03-23T17:27:34;2.80;;;1.93;;
2748;SDS011;1382;52.142;11.618;2024-03-23T17:30:00;3.13;;;1.63;;
2748;SDS011;1382;52.142;11.618;2024-03-23T17:32:27;1.93;;;1.60;;
2748;SDS011;1382;52.142;11.618;2024-03-23T17:34:52;2.47;;;1.60;;
2748;SDS011;1382;52.142;11.618;2024-03-23T17:37:20;5.47;;;3.57;;
2748;SDS011;1382;52.142;11.618;2024-03-23T17:39:45;3.40;;;1.93;;
2748;SDS011;1382;52.142;11.618;2024-03-23T17:42:11;3.60;;;1.50;;
2748;SDS011;1382;52.142;11.618;2024-03-23T17:44:37;2.10;;;1.57;;
2748;SDS011;1382;52.142;11.618;2024-03-23T17:47:03;4.83;;;3.10;;
2748;SDS011;1382;52.142;11.618;2024-03-23T17:49:29;1.90;;;1.70;;
2748;SDS011;1382;52.142;11.618;2024-03-23T17:51:57;3.87;;;2.83;;
2748;SDS011;1382;52.142;11.618;2024-03-23T17:54:26;2.20;;;1.43;;
2748;SDS011;1382;52.142;11.618;2024-03-23T17:56:52;6.07;;;2.70;;
2748;SDS011;1382;52.142;11.618;2024-03-23T17:59:20;3.43;;;2.00;;
2748;SDS011;1382;52.142;11.618;2024-03-23T18:01:48;1.80;;;1.30;;
2748;SDS011;1382;52.142;11.618;2024-03-23T18:04:14;4.17;;;2.50;;
2748;SDS011;1382;52.142;11.618;2024-03-23T18:06:40;1.87;;;1.40;;
2748;SDS011;1382;52.142;11.618;2024-03-23T18:09:06;1.23;;;1.13;;
2748;SDS011;1382;52.142;11.618;2024-03-23T18:11:33;7.13;;;3.13;;
2748;SDS011;1382;52.142;11.618;2024-03-23T18:13:59;2.63;;;1.20;;
2748;SDS011;1382;52.142;11.618;2024-03-23T18:16:25;18.43;;;11.80;;
2748;SDS011;1382;52.142;11.618;2024-03-23T18:18:51;13.40;;;7.10;;
2748;SDS011;1382;52.142;11.618;2024-03-23T18:21:17;2.43;;;1.23;;
2748;SDS011;1382;52.142;11.618;2024-03-23T18:23:45;5.87;;;3.63;;
2748;SDS011;1382;52.142;11.618;2024-03-23T18:26:10;9.37;;;5.47;;
2748;SDS011;1382;52.142;11.618;2024-03-23T18:28:38;4.50;;;2.57;;
2748;SDS011;1382;52.142;11.618;2024-03-23T18:31:04;2.60;;;2.40;;
2748;SDS011;1382;52.142;11.618;2024-03-23T18:33:32;3.17;;;2.13;;
2748;SDS011;1382;52.142;11.618;2024-03-23T18:36:01;2.53;;;2.20;;
2748;SDS011;1382;52.142;11.618;2024-03-23T18:38:27;3.23;;;1.50;;
2748;SDS011;1382;52.142;11.618;2024-03-23T18:40:53;2.90;;;1.70;;
2748;SDS011;1382;52.142;11.618;2024-03-23T18:43:18;4.90;;;3.53;;
2748;SDS011;1382;52.142;11.618;2024-03-23T18:45:48;4.13;;;1.77;;
2748;SDS011;1382;52.142;11.618;2024-03-23T18:48:15;2.97;;;1.53;;